Time;durP1;ratioP1;P1;durP2;ratioP2;P2;SDS_P1;SDS_P2;PMS_P1;PMS_P2;Temp;Humidity;BMP_temperature;BMP_pressure;BME280_temperature;BME280_humidity;BME280_pressure;Samples;Min_cycle;Max_cycle;Signal;HPM_P1;HPM_P2
2024/04/12 00:00:47;;;;;;;1.83;1.50;;;;;;;;;;5452343;26;20477;-38
2024/04/12 00:03:17;;;;;;;1.52;1.38;;;;;;;;;;5446097;26;20540;-39
2024/04/12 00:05:47;;;;;;;1.50;1.40;;;;;;;;;;5444243;26;20439;-38
2024/04/12 00:08:13;;;;;;;1.58;1.20;;;;;;;;;;5445996;26;20517;-38
2024/04/12 00:10:40;;;;;;;1.92;1.48;;;;;;;;;;5451938;26;20553;-38
2024/04/12 00:13:07;;;;;;;2.00;1.40;;;;;;;;;;5438444;26;20499;-38
2024/04/12 00:15:33;;;;;;;1.45;1.35;;;;;;;;;;5445386;26;20227;-38
2024/04/12 00:17:59;;;;;;;2.65;1.58;;;;;;;;;;5448224;26;20255;-38
2024/04/12 00:20:28;;;;;;;1.45;1.30;;;;;;;;;;5450767;26;20526;-38
2024/04/12 00:22:55;;;;;;;1.40;1.08;;;;;;;;;;5445699;26;20277;-38
2024/04/12 00:25:23;;;;;;;1.25;1.10;;;;;;;;;;5438635;26;20231;-38
2024/04/12 00:27:49;;;;;;;1.58;1.30;;;;;;;;;;5425561;26;20228;-38
2024/04/12 00:30:38;;;;;;;1.40;1.30;;;;;;;;;;5445977;26;20290;-38
2024/04/12 00:33:01;;;;;;;1.55;1.45;;;;;;;;;;5452970;26;20243;-38
2024/04/12 00:35:34;;;;;;;1.20;1.10;;;;;;;;;;5450935;26;20231;-38
2024/04/12 00:38:09;;;;;;;2.90;1.10;;;;;;;;;;5443177;26;20270;-38
2024/04/12 00:40:34;;;;;;;1.70;1.13;;;;;;;;;;5434357;26;20294;-38
2024/04/12 00:43:11;;;;;;;1.80;1.40;;;;;;;;;;5447592;26;20474;-38
2024/04/12 00:45:41;;;;;;;1.15;1.02;;;;;;;;;;5439009;26;20270;-38
2024/04/12 00:48:07;;;;;;;1.10;1.00;;;;;;;;;;5434817;26;20275;-38
2024/04/12 00:50:37;;;;;;;1.35;1.20;;;;;;;;;;5441800;26;20654;-38
2024/04/12 00:53:09;;;;;;;1.75;1.15;;;;;;;;;;5446899;26;20270;-38
2024/04/12 00:55:38;;;;;;;1.65;1.30;;;;;;;;;;5438014;26;20693;-38
2024/04/12 00:58:06;;;;;;;1.70;1.25;;;;;;;;;;5453649;26;20254;-38
2024/04/12 01:00:36;;;;;;;2.78;1.20;;;;;;;;;;5452494;26;20227;-38
2024/04/12 01:03:05;;;;;;;2.17;1.30;;;;;;;;;;5454410;26;20277;-38
2024/04/12 01:05:35;;;;;;;2.30;1.52;;;;;;;;;;5437948;26;20232;-38
2024/04/12 01:08:01;;;;;;;1.30;1.20;;;;;;;;;;5442918;26;20285;-38
2024/04/12 01:10:31;;;;;;;1.33;1.05;;;;;;;;;;5449836;26;20295;-38
2024/04/12 01:12:57;;;;;;;1.45;1.02;;;;;;;;;;5440219;26;20274;-38
2024/04/12 01:15:24;;;;;;;1.50;1.25;;;;;;;;;;5447479;26;20442;-38
2024/04/12 01:17:51;;;;;;;1.73;1.30;;;;;;;;;;5448751;26;20232;-39
2024/04/12 01:20:17;;;;;;;1.92;1.33;;;;;;;;;;5439106;26;20245;-38
2024/04/12 01:22:44;;;;;;;1.55;1.20;;;;;;;;;;5439457;26;20274;-38
2024/04/12 01:25:11;;;;;;;1.30;1.20;;;;;;;;;;5441322;26;20291;-39
2024/04/12 01:27:40;;;;;;;1.52;1.17;;;;;;;;;;5428346;26;20333;-38
2024/04/12 01:30:11;;;;;;;1.58;1.42;;;;;;;;;;5440000;26;20228;-38
2024/04/12 01:32:37;;;;;;;1.73;1.05;;;;;;;;;;5436201;26;20254;-38
2024/04/12 01:35:03;;;;;;;1.58;1.40;;;;;;;;;;5449532;26;20291;-38
2024/04/12 01:37:30;;;;;;;1.27;1.10;;;;;;;;;;5438163;26;20245;-38
2024/04/12 01:40:01;;;;;;;2.00;1.35;;;;;;;;;;5428964;26;20228;-38
2024/04/12 01:42:28;;;;;;;1.33;1.13;;;;;;;;;;5449699;26;20630;-39
2024/04/12 01:47:38;;;;;;;1.75;1.17;;;;;;;;;;5439596;26;20320;-38
2024/04/12 01:50:05;;;;;;;1.33;1.23;;;;;;;;;;5440449;26;20228;-38
2024/04/12 01:52:31;;;;;;;1.10;1.00;;;;;;;;;;5446925;26;20340;-39
2024/04/12 01:55:07;;;;;;;1.67;1.40;;;;;;;;;;5438623;26;20307;-38
2024/04/12 01:57:33;;;;;;;1.30;0.90;;;;;;;;;;5433735;26;20232;-38
2024/04/12 02:00:02;;;;;;;1.15;1.05;;;;;;;;;;5445461;26;20325;-38
2024/04/12 02:02:28;;;;;;;1.00;0.90;;;;;;;;;;5442407;26;20243;-38
2024/04/12 02:04:56;;;;;;;1.38;1.13;;;;;;;;;;5422134;26;20283;-38
2024/04/12 02:07:27;;;;;;;1.33;1.10;;;;;;;;;;5435259;26;20259;-38
2024/04/12 02:09:53;;;;;;;1.17;0.95;;;;;;;;;;5440104;26;20275;-38
2024/04/12 02:12:26;;;;;;;1.15;1.10;;;;;;;;;;5435929;26;20304;-38
2024/04/12 02:14:54;;;;;;;1.55;1.00;;;;;;;;;;5436915;26;20282;-38
2024/04/12 02:17:20;;;;;;;2.03;1.23;;;;;;;;;;5453156;26;20282;-38
2024/04/12 02:19:46;;;;;;;1.02;1.00;;;;;;;;;;5450669;26;20322;-38
2024/04/12 02:22:13;;;;;;;1.98;1.15;;;;;;;;;;5444600;26;20231;-38
2024/04/12 02:24:40;;;;;;;1.20;1.10;;;;;;;;;;5451127;26;20232;-38
2024/04/12 02:27:06;;;;;;;3.53;1.35;;;;;;;;;;5439847;26;20234;-38
2024/04/12 02:29:34;;;;;;;1.10;1.00;;;;;;;;;;5450569;26;20253;-38
2024/04/12 02:32:00;;;;;;;2.15;1.30;;;;;;;;;;5453179;26;20233;-38
2024/04/12 02:34:28;;;;;;;2.90;1.25;;;;;;;;;;5446013;26;20315;-38
2024/04/12 02:36:54;;;;;;;3.30;1.30;;;;;;;;;;5436996;26;20270;-38
2024/04/12 02:39:23;;;;;;;1.52;1.10;;;;;;;;;;5454417;26;20290;-38
2024/04/12 02:41:49;;;;;;;1.75;1.40;;;;;;;;;;5450784;26;20240;-38
2024/04/12 02:44:15;;;;;;;1.00;0.85;;;;;;;;;;5458357;26;20488;-38
2024/04/12 02:46:41;;;;;;;1.55;1.27;;;;;;;;;;5454117;26;20243;-39
2024/04/12 02:49:10;;;;;;;1.20;1.10;;;;;;;;;;5457936;26;20227;-38
2024/04/12 02:51:47;;;;;;;1.00;1.00;;;;;;;;;;5438525;26;20242;-38
2024/04/12 02:54:13;;;;;;;1.05;0.95;;;;;;;;;;5454764;26;20278;-38
2024/04/12 02:56:38;;;;;;;1.42;1.10;;;;;;;;;;5448942;26;20610;-38
2024/04/12 02:59:05;;;;;;;1.27;1.00;;;;;;;;;;5434053;26;20290;-39
2024/04/12 03:01:33;;;;;;;1.38;1.05;;;;;;;;;;5448408;26;20271;-38
2024/04/12 03:03:59;;;;;;;1.40;1.00;;;;;;;;;;5456042;26;20610;-38
2024/04/12 03:06:26;;;;;;;3.17;0.98;;;;;;;;;;5440684;26;20307;-38
2024/04/12 03:08:53;;;;;;;0.98;0.90;;;;;;;;;;5436587;26;20276;-38
2024/04/12 03:11:25;;;;;;;1.40;0.98;;;;;;;;;;5430471;26;20264;-38
2024/04/12 03:13:51;;;;;;;0.73;0.73;;;;;;;;;;5436451;26;20231;-38
2024/04/12 03:16:19;;;;;;;1.30;1.20;;;;;;;;;;5442733;26;20657;-38
2024/04/12 03:18:45;;;;;;;0.90;0.90;;;;;;;;;;5436176;26;20270;-38
2024/04/12 03:21:20;;;;;;;1.10;1.00;;;;;;;;;;5436524;26;20248;-38
2024/04/12 03:23:47;;;;;;;1.42;0.90;;;;;;;;;;5452225;26;20957;-38
2024/04/12 03:26:16;;;;;;;1.45;1.05;;;;;;;;;;5421321;26;20279;-38
2024/04/12 03:28:47;;;;;;;1.40;0.80;;;;;;;;;;5434977;26;20237;-38
2024/04/12 03:31:13;;;;;;;0.82;0.82;;;;;;;;;;5448312;26;20269;-38
2024/04/12 03:33:43;;;;;;;1.48;1.23;;;;;;;;;;5435185;26;20229;-38
2024/04/12 03:39:24;;;;;;;1.17;1.08;;;;;;;;;;5440792;26;20664;-38
2024/04/12 03:41:50;;;;;;;1.95;1.20;;;;;;;;;;5431917;26;20298;-38
2024/04/12 03:44:18;;;;;;;1.67;1.00;;;;;;;;;;5441591;26;20462;-38
2024/04/12 03:46:50;;;;;;;2.40;1.10;;;;;;;;;;5455586;26;20223;-38
2024/04/12 03:49:20;;;;;;;0.93;0.82;;;;;;;;;;5445132;26;20440;-38
2024/04/12 03:51:47;;;;;;;1.63;1.15;;;;;;;;;;5452998;26;20289;-38
2024/04/12 03:54:17;;;;;;;3.95;1.00;;;;;;;;;;5439428;26;20510;-38
2024/04/12 03:56:43;;;;;;;2.03;0.95;;;;;;;;;;5449732;26;20732;-38
2024/04/12 03:59:09;;;;;;;1.75;0.90;;;;;;;;;;5441736;26;20620;-38
2024/04/12 04:01:37;;;;;;;2.28;1.20;;;;;;;;;;5432068;26;20281;-38
2024/04/12 04:04:10;;;;;;;10.25;2.47;;;;;;;;;;5454832;26;20227;-38
2024/04/12 04:06:36;;;;;;;15.75;2.50;;;;;;;;;;5431208;26;20228;-39
2024/04/12 04:09:06;;;;;;;3.13;1.60;;;;;;;;;;5444449;26;20274;-49
2024/04/12 04:11:42;;;;;;;4.63;2.10;;;;;;;;;;5448960;26;21091;-46
2024/04/12 04:14:09;;;;;;;9.82;1.80;;;;;;;;;;5443925;26;20261;-48
2024/04/12 04:16:38;;;;;;;12.13;2.30;;;;;;;;;;5431665;26;20345;-41
2024/04/12 04:19:04;;;;;;;6.80;1.88;;;;;;;;;;5437073;26;20224;-37
2024/04/12 04:21:33;;;;;;;12.73;2.28;;;;;;;;;;5448223;26;20235;-46
2024/04/12 04:24:08;;;;;;;11.52;2.22;;;;;;;;;;5441376;26;20235;-41
2024/04/12 04:26:41;;;;;;;6.22;2.10;;;;;;;;;;5453252;26;20333;-45
2024/04/12 04:29:10;;;;;;;6.60;1.95;;;;;;;;;;5437172;26;20223;-45
2024/04/12 04:31:52;;;;;;;5.18;2.05;;;;;;;;;;5445987;26;20227;-46
2024/04/12 04:34:19;;;;;;;8.77;2.40;;;;;;;;;;5452011;26;20300;-46
2024/04/12 04:36:48;;;;;;;5.43;1.80;;;;;;;;;;5441377;26;20829;-55
2024/04/12 04:39:17;;;;;;;5.30;2.10;;;;;;;;;;5447070;26;20658;-36
2024/04/12 04:41:44;;;;;;;6.78;2.13;;;;;;;;;;5442856;26;20327;-36
2024/04/12 04:44:14;;;;;;;5.90;2.05;;;;;;;;;;5449998;26;20753;-37
2024/04/12 04:46:41;;;;;;;2.88;1.70;;;;;;;;;;5455445;26;20293;-35
2024/04/12 04:49:07;;;;;;;7.00;1.92;;;;;;;;;;5444910;26;20236;-36
2024/04/12 04:51:35;;;;;;;6.45;2.17;;;;;;;;;;5443409;26;21277;-35
2024/04/12 04:54:02;;;;;;;8.18;2.05;;;;;;;;;;5451469;26;20658;-36
2024/04/12 04:56:30;;;;;;;2.60;1.52;;;;;;;;;;5452177;26;20533;-36
2024/04/12 04:58:57;;;;;;;2.70;1.50;;;;;;;;;;5448541;26;20611;-36
2024/04/12 05:01:25;;;;;;;5.63;2.13;;;;;;;;;;5453691;26;20240;-35
2024/04/12 05:03:52;;;;;;;4.57;1.63;;;;;;;;;;5449091;26;20271;-35
2024/04/12 05:06:27;;;;;;;1.95;1.70;;;;;;;;;;5445204;26;20231;-35
2024/04/12 05:08:56;;;;;;;4.43;1.70;;;;;;;;;;5450053;26;20771;-35
2024/04/12 05:11:24;;;;;;;4.43;1.65;;;;;;;;;;5445895;26;20227;-35
2024/04/12 05:13:50;;;;;;;3.88;1.70;;;;;;;;;;5440415;26;20220;-36
2024/04/12 05:16:19;;;;;;;2.15;1.55;;;;;;;;;;5446303;26;20265;-35
2024/04/12 05:18:49;;;;;;;2.65;1.65;;;;;;;;;;5451820;26;20653;-36
2024/04/12 05:21:15;;;;;;;3.60;1.80;;;;;;;;;;5428827;26;20228;-36
2024/04/12 05:23:41;;;;;;;3.92;1.50;;;;;;;;;;5436724;26;20320;-36
2024/04/12 05:26:09;;;;;;;4.00;1.88;;;;;;;;;;5447678;26;20239;-35
2024/04/12 05:28:35;;;;;;;4.18;1.80;;;;;;;;;;5447985;26;20464;-36
2024/04/12 05:31:02;;;;;;;4.15;1.63;;;;;;;;;;5439254;26;20857;-36
2024/04/12 05:33:29;;;;;;;2.65;1.63;;;;;;;;;;5453289;26;20277;-35
2024/04/12 05:35:55;;;;;;;6.47;2.15;;;;;;;;;;5451454;26;21037;-35
2024/04/12 05:38:23;;;;;;;4.45;1.40;;;;;;;;;;5442442;26;20458;-35
2024/04/12 05:40:52;;;;;;;2.53;2.00;;;;;;;;;;5444048;26;20266;-35
2024/04/12 05:43:21;;;;;;;3.10;2.10;;;;;;;;;;5432539;26;20281;-35
2024/04/12 05:45:47;;;;;;;3.72;2.03;;;;;;;;;;5451345;26;20227;-36
2024/04/12 05:48:14;;;;;;;8.30;2.28;;;;;;;;;;5446897;26;20247;-36
2024/04/12 05:50:40;;;;;;;4.22;1.92;;;;;;;;;;5450491;26;20321;-35
2024/04/12 05:53:10;;;;;;;3.50;2.00;;;;;;;;;;5430631;26;20228;-36
2024/04/12 05:55:44;;;;;;;6.03;2.13;;;;;;;;;;5432067;26;20232;-36
2024/04/12 05:58:10;;;;;;;3.20;1.75;;;;;;;;;;5430207;26;20228;-36
2024/04/12 06:00:36;;;;;;;4.20;2.05;;;;;;;;;;5446893;26;20645;-36
2024/04/12 06:03:01;;;;;;;4.65;2.03;;;;;;;;;;5443376;26;20231;-35
2024/04/12 06:05:27;;;;;;;3.00;1.42;;;;;;;;;;5437714;26;20281;-36
2024/04/12 06:07:58;;;;;;;7.18;2.40;;;;;;;;;;5439226;26;20307;-36
2024/04/12 06:10:25;;;;;;;5.15;2.22;;;;;;;;;;5453859;26;20228;-35
2024/04/12 06:12:54;;;;;;;5.90;2.35;;;;;;;;;;5447191;26;20248;-35
2024/04/12 06:15:21;;;;;;;3.60;2.25;;;;;;;;;;5455319;26;20262;-35
2024/04/12 06:17:49;;;;;;;8.55;1.80;;;;;;;;;;5433202;26;20232;-36
2024/04/12 06:20:30;;;;;;;4.65;2.30;;;;;;;;;;5449340;26;20298;-36
2024/04/12 06:22:57;;;;;;;3.42;1.80;;;;;;;;;;5424689;26;20628;-36
2024/04/12 06:25:23;;;;;;;3.65;2.08;;;;;;;;;;5441085;26;20228;-35
2024/04/12 06:27:52;;;;;;;3.08;2.00;;;;;;;;;;5412880;26;20291;-35
2024/04/12 06:30:24;;;;;;;3.55;1.50;;;;;;;;;;5418600;26;20225;-36
2024/04/12 06:32:53;;;;;;;2.85;1.50;;;;;;;;;;5444436;26;20231;-35
2024/04/12 06:35:28;;;;;;;4.50;1.90;;;;;;;;;;5425548;26;20240;-36
2024/04/12 06:37:54;;;;;;;3.10;1.70;;;;;;;;;;5436132;26;20239;-36
2024/04/12 06:40:28;;;;;;;3.80;1.77;;;;;;;;;;5448937;26;20243;-35
2024/04/12 06:42:53;;;;;;;3.80;1.38;;;;;;;;;;5438224;26;20274;-35
2024/04/12 06:45:20;;;;;;;4.57;1.90;;;;;;;;;;5443397;26;20291;-35
2024/04/12 06:47:48;;;;;;;6.80;1.80;;;;;;;;;;5437043;26;20623;-35
2024/04/12 06:50:14;;;;;;;7.35;1.77;;;;;;;;;;5444030;26;20240;-36
2024/04/12 06:52:40;;;;;;;2.90;1.55;;;;;;;;;;5434665;26;20223;-36
2024/04/12 06:55:14;;;;;;;3.53;1.88;;;;;;;;;;5431526;26;20229;-36
2024/04/12 06:57:44;;;;;;;3.53;2.08;;;;;;;;;;5435867;26;20325;-35
2024/04/12 07:00:10;;;;;;;6.38;2.60;;;;;;;;;;5417919;26;20869;-35
2024/04/12 07:02:36;;;;;;;4.72;1.88;;;;;;;;;;5434909;26;20278;-35
2024/04/12 07:05:05;;;;;;;8.27;2.60;;;;;;;;;;5435235;26;20288;-35
2024/04/12 07:07:32;;;;;;;3.22;2.45;;;;;;;;;;5440150;26;20235;-35
2024/04/12 07:09:58;;;;;;;3.30;2.60;;;;;;;;;;5438618;26;20270;-35
2024/04/12 07:12:27;;;;;;;4.97;3.33;;;;;;;;;;5421887;26;20229;-35
2024/04/12 07:14:54;;;;;;;2.33;2.08;;;;;;;;;;5445927;26;20282;-35
2024/04/12 07:17:20;;;;;;;4.07;2.42;;;;;;;;;;5427234;26;20240;-36
2024/04/12 07:19:49;;;;;;;3.78;2.63;;;;;;;;;;5447313;26;20309;-35
2024/04/12 07:22:19;;;;;;;4.22;2.53;;;;;;;;;;5453126;26;20265;-35
2024/04/12 07:24:47;;;;;;;3.65;2.45;;;;;;;;;;5438811;26;20236;-35
2024/04/12 07:27:15;;;;;;;4.60;3.63;;;;;;;;;;5444502;26;20234;-35
2024/04/12 07:29:44;;;;;;;4.75;2.70;;;;;;;;;;5446692;26;20716;-35
2024/04/12 07:32:13;;;;;;;4.63;3.45;;;;;;;;;;5433174;26;20274;-36
2024/04/12 07:34:48;;;;;;;7.80;3.40;;;;;;;;;;5433582;26;20232;-36
2024/04/12 07:37:14;;;;;;;6.25;2.60;;;;;;;;;;5443621;26;20230;-36
2024/04/12 07:39:40;;;;;;;6.07;1.90;;;;;;;;;;5425785;26;20275;-36
2024/04/12 07:42:08;;;;;;;4.22;1.77;;;;;;;;;;5433907;26;20236;-36
2024/04/12 07:44:35;;;;;;;5.68;1.90;;;;;;;;;;5451171;26;20235;-36
2024/04/12 07:47:06;;;;;;;4.10;1.30;;;;;;;;;;5442506;26;20224;-36
2024/04/12 07:49:40;;;;;;;2.70;1.63;;;;;;;;;;5444007;26;20236;-35
2024/04/12 07:52:09;;;;;;;2.17;1.35;;;;;;;;;;5451130;26;20586;-35
2024/04/12 07:54:35;;;;;;;3.08;1.50;;;;;;;;;;5442460;26;20236;-35
2024/04/12 07:57:07;;;;;;;4.63;1.30;;;;;;;;;;5447180;26;20312;-36
2024/04/12 07:59:37;;;;;;;3.15;1.30;;;;;;;;;;5438049;26;20243;-35
2024/04/12 08:02:05;;;;;;;2.42;1.23;;;;;;;;;;5452194;26;20658;-36
2024/04/12 08:04:37;;;;;;;4.57;1.73;;;;;;;;;;5444888;26;20243;-35
2024/04/12 08:07:13;;;;;;;3.53;1.90;;;;;;;;;;5424077;26;20440;-35
2024/04/12 08:09:46;;;;;;;4.45;1.58;;;;;;;;;;5448860;26;20236;-36
2024/04/12 08:12:17;;;;;;;2.35;1.40;;;;;;;;;;5442865;26;20447;-36
2024/04/12 08:14:52;;;;;;;3.55;1.48;;;;;;;;;;5456908;26;20606;-36
2024/04/12 08:17:19;;;;;;;2.95;1.38;;;;;;;;;;5441599;26;20271;-35
2024/04/12 08:19:49;;;;;;;3.40;1.20;;;;;;;;;;5439549;26;20657;-35
2024/04/12 08:22:18;;;;;;;5.10;1.17;;;;;;;;;;5425210;26;20232;-36
2024/04/12 08:24:49;;;;;;;4.65;1.67;;;;;;;;;;5439591;26;20239;-35
2024/04/12 08:27:18;;;;;;;2.83;1.23;;;;;;;;;;5436139;26;20221;-36
2024/04/12 08:29:45;;;;;;;5.07;1.45;;;;;;;;;;5422412;26;20228;-35
2024/04/12 08:34:49;;;;;;;4.05;1.35;;;;;;;;;;5446713;26;20299;-35
2024/04/12 08:37:18;;;;;;;5.82;1.50;;;;;;;;;;5429576;26;20236;-35
2024/04/12 08:39:45;;;;;;;3.47;1.75;;;;;;;;;;5431775;26;20259;-36
2024/04/12 08:42:14;;;;;;;4.95;1.42;;;;;;;;;;5443318;26;20305;-36
2024/04/12 08:44:40;;;;;;;5.32;1.23;;;;;;;;;;5436694;26;20736;-36
2024/04/12 08:47:16;;;;;;;5.28;1.40;;;;;;;;;;5454851;26;20219;-36
2024/04/12 08:49:45;;;;;;;3.63;1.17;;;;;;;;;;5434188;26;20655;-38
2024/04/12 08:52:24;;;;;;;5.25;1.50;;;;;;;;;;5447969;26;20277;-39
2024/04/12 08:54:54;;;;;;;12.80;6.88;;;;;;;;;;5428092;26;20545;-41
2024/04/12 08:57:21;;;;;;;19.88;7.78;;;;;;;;;;5451653;26;20329;-41
2024/04/12 08:59:47;;;;;;;14.35;7.43;;;;;;;;;;5438987;26;20236;-41
2024/04/12 09:02:13;;;;;;;15.55;6.60;;;;;;;;;;5449849;26;20590;-41
2024/04/12 09:04:40;;;;;;;7.63;4.82;;;;;;;;;;5444215;26;20239;-41
2024/04/12 09:07:10;;;;;;;10.88;4.63;;;;;;;;;;5427216;26;20274;-41
2024/04/12 09:09:38;;;;;;;5.95;3.30;;;;;;;;;;5443756;26;20231;-41
2024/04/12 09:12:12;;;;;;;7.13;2.35;;;;;;;;;;5453725;26;20278;-41
2024/04/12 09:14:40;;;;;;;5.00;2.00;;;;;;;;;;5440062;26;20231;-41
2024/04/12 09:17:13;;;;;;;4.07;2.25;;;;;;;;;;5445679;26;20572;-41
2024/04/12 09:19:39;;;;;;;5.82;1.98;;;;;;;;;;5449295;26;20231;-41
2024/04/12 09:22:09;;;;;;;4.82;1.83;;;;;;;;;;5434146;26;20229;-40
2024/04/12 09:24:39;;;;;;;7.63;1.70;;;;;;;;;;5450079;26;20220;-41
2024/04/12 09:27:09;;;;;;;4.45;1.42;;;;;;;;;;5425910;26;20307;-41
2024/04/12 09:29:43;;;;;;;3.97;1.70;;;;;;;;;;5442232;26;20247;-41
2024/04/12 09:34:55;;;;;;;8.40;1.60;;;;;;;;;;5432574;26;20662;-41
2024/04/12 09:37:38;;;;;;;6.43;1.90;;;;;;;;;;5437440;26;20320;-41
2024/04/12 09:40:16;;;;;;;3.25;1.88;;;;;;;;;;5436872;26;20600;-41
2024/04/12 09:45:27;;;;;;;1.70;1.17;;;;;;;;;;5445847;26;20270;-41
2024/04/12 10:37:44;;;;;;;3.22;1.27;;;;;;;;;;5425638;26;20277;-41
2024/04/12 10:40:11;;;;;;;1.65;1.10;;;;;;;;;;5440863;26;20807;-41
2024/04/12 10:42:42;;;;;;;3.35;1.20;;;;;;;;;;5444536;26;20229;-41
2024/04/12 10:45:14;;;;;;;3.05;1.15;;;;;;;;;;5429991;26;20308;-41
2024/04/12 10:47:44;;;;;;;7.55;1.25;;;;;;;;;;5445896;26;20224;-41
2024/04/12 10:50:10;;;;;;;3.38;1.00;;;;;;;;;;5438786;26;20244;-41
2024/04/12 10:52:36;;;;;;;5.05;1.15;;;;;;;;;;5444567;26;20261;-41
2024/04/12 10:55:09;;;;;;;2.88;1.20;;;;;;;;;;5450509;26;20235;-41
2024/04/12 10:57:42;;;;;;;4.05;1.20;;;;;;;;;;5449330;26;20642;-41
2024/04/12 11:00:15;;;;;;;4.82;1.05;;;;;;;;;;5444943;26;20282;-41
2024/04/12 11:02:44;;;;;;;8.13;1.20;;;;;;;;;;5430092;26;20283;-41
2024/04/12 11:07:52;;;;;;;1.45;0.85;;;;;;;;;;5446998;26;20296;-41
2024/04/12 11:10:37;;;;;;;1.80;0.82;;;;;;;;;;5428183;26;20231;-41
2024/04/12 11:13:06;;;;;;;2.38;1.05;;;;;;;;;;5428726;26;20271;-41
2024/04/12 11:32:01;;;;;;;2.05;1.00;;;;;;;;;;5440320;26;20275;-41
2024/04/12 11:34:29;;;;;;;2.30;0.82;;;;;;;;;;5442158;26;20223;-41
2024/04/12 11:36:55;;;;;;;3.47;1.00;;;;;;;;;;5439226;26;20907;-41
2024/04/12 11:39:25;;;;;;;2.83;0.93;;;;;;;;;;5452161;26;20477;-41
2024/04/12 11:42:00;;;;;;;5.07;1.17;;;;;;;;;;5441429;26;20228;-41
2024/04/12 11:44:26;;;;;;;2.80;0.90;;;;;;;;;;5448422;26;20273;-41
2024/04/12 11:46:56;;;;;;;1.42;0.82;;;;;;;;;;5440871;26;21660;-41
2024/04/12 11:49:25;;;;;;;3.55;1.02;;;;;;;;;;5425591;26;20325;-41
2024/04/12 11:52:01;;;;;;;1.83;0.80;;;;;;;;;;5429539;26;20362;-41
2024/04/12 11:54:29;;;;;;;2.10;0.90;;;;;;;;;;5428151;26;20292;-41
2024/04/12 11:56:57;;;;;;;2.28;0.77;;;;;;;;;;5425661;26;20275;-41
2024/04/12 11:59:27;;;;;;;5.25;1.00;;;;;;;;;;5435519;26;20244;-41
2024/04/12 12:01:53;;;;;;;3.50;1.35;;;;;;;;;;5437736;26;20239;-41
2024/04/12 12:04:21;;;;;;;2.45;1.20;;;;;;;;;;5452794;26;20227;-41
2024/04/12 12:06:48;;;;;;;3.15;0.90;;;;;;;;;;5444776;26;20231;-41
2024/04/12 12:09:14;;;;;;;5.15;1.23;;;;;;;;;;5431423;26;20646;-41
2024/04/12 12:11:43;;;;;;;5.03;1.35;;;;;;;;;;5439009;26;20231;-41
2024/04/12 12:14:09;;;;;;;3.28;1.02;;;;;;;;;;5438642;26;20231;-41
2024/04/12 12:16:36;;;;;;;1.98;0.90;;;;;;;;;;5452988;26;20247;-41
2024/04/12 12:19:02;;;;;;;2.75;0.98;;;;;;;;;;5430727;26;20231;-41
2024/04/12 12:21:28;;;;;;;3.35;1.15;;;;;;;;;;5432251;26;20325;-41
2024/04/12 12:23:54;;;;;;;1.35;0.80;;;;;;;;;;5446911;26;20231;-41
2024/04/12 12:26:22;;;;;;;3.03;0.90;;;;;;;;;;5433403;26;20236;-41
2024/04/12 12:28:47;;;;;;;2.63;1.05;;;;;;;;;;5449794;26;20282;-41
2024/04/12 12:31:17;;;;;;;4.32;1.15;;;;;;;;;;5427250;26;20228;-41
2024/04/12 12:33:45;;;;;;;3.42;1.00;;;;;;;;;;5434509;26;20282;-41
2024/04/12 12:36:11;;;;;;;4.30;1.30;;;;;;;;;;5455021;26;20247;-41
2024/04/12 12:38:40;;;;;;;2.03;0.98;;;;;;;;;;5438313;26;20239;-41
2024/04/12 12:41:06;;;;;;;1.60;1.00;;;;;;;;;;5436530;26;20301;-41
2024/04/12 12:43:32;;;;;;;3.58;1.30;;;;;;;;;;5436681;26;20241;-41
2024/04/12 12:45:58;;;;;;;3.80;1.02;;;;;;;;;;5439237;26;20298;-41
2024/04/12 12:48:27;;;;;;;5.40;1.20;;;;;;;;;;5441463;26;20642;-41
2024/04/12 12:50:54;;;;;;;1.85;0.90;;;;;;;;;;5443931;26;20231;-41
2024/04/12 12:53:22;;;;;;;2.70;0.90;;;;;;;;;;5442538;26;20223;-41
2024/04/12 12:55:49;;;;;;;1.40;0.80;;;;;;;;;;5441050;26;20324;-42
2024/04/12 12:58:18;;;;;;;1.02;0.93;;;;;;;;;;5442515;26;20325;-42
2024/04/12 13:00:47;;;;;;;2.72;1.00;;;;;;;;;;5433276;26;20287;-41
2024/04/12 13:03:17;;;;;;;4.80;0.70;;;;;;;;;;5440083;26;20243;-41
2024/04/12 13:05:46;;;;;;;2.20;1.10;;;;;;;;;;5428510;26;20278;-41
2024/04/12 13:08:15;;;;;;;4.72;0.93;;;;;;;;;;5454349;26;20227;-41
2024/04/12 13:10:46;;;;;;;2.53;0.80;;;;;;;;;;5446959;26;20663;-41
2024/04/12 13:13:17;;;;;;;4.63;1.10;;;;;;;;;;5432369;26;20224;-42
2024/04/12 13:15:43;;;;;;;2.60;0.70;;;;;;;;;;5441599;26;20280;-42
2024/04/12 13:18:09;;;;;;;3.20;1.00;;;;;;;;;;5434834;26;20235;-41
2024/04/12 13:20:36;;;;;;;3.50;1.15;;;;;;;;;;5434572;26;20231;-41
2024/04/12 13:23:03;;;;;;;3.13;1.17;;;;;;;;;;5447159;26;20501;-41
2024/04/12 13:25:29;;;;;;;3.90;0.90;;;;;;;;;;5438131;26;20233;-41
2024/04/12 13:27:54;;;;;;;5.90;1.40;;;;;;;;;;5442833;26;20231;-42
2024/04/12 13:30:21;;;;;;;7.75;1.40;;;;;;;;;;5455418;26;20266;-41
2024/04/12 13:32:54;;;;;;;3.53;1.20;;;;;;;;;;5450684;26;20247;-41
2024/04/12 13:35:21;;;;;;;2.88;0.88;;;;;;;;;;5456100;26;20231;-41
2024/04/12 13:37:48;;;;;;;1.42;1.02;;;;;;;;;;5427285;26;20240;-41
2024/04/12 13:40:18;;;;;;;2.30;1.33;;;;;;;;;;5453455;26;20271;-41
2024/04/12 13:42:45;;;;;;;2.45;1.02;;;;;;;;;;5453632;26;20247;-41
2024/04/12 13:50:56;;;;;;;2.22;1.00;;;;;;;;;;5453932;26;20270;-41
2024/04/12 13:53:32;;;;;;;3.65;1.17;;;;;;;;;;5448806;26;20258;-41
2024/04/12 13:56:17;;;;;;;4.10;1.10;;;;;;;;;;5449753;26;20239;-41
2024/04/12 13:58:43;;;;;;;3.67;1.65;;;;;;;;;;5435020;26;20269;-41
2024/04/12 14:01:09;;;;;;;3.15;0.95;;;;;;;;;;5438024;26;20295;-41
2024/04/12 14:03:35;;;;;;;1.60;1.00;;;;;;;;;;5452753;26;20227;-41
2024/04/12 14:06:01;;;;;;;1.17;0.73;;;;;;;;;;5451482;26;20291;-41
2024/04/12 14:08:30;;;;;;;4.22;0.80;;;;;;;;;;5452892;26;20235;-41
2024/04/12 14:10:56;;;;;;;1.00;0.90;;;;;;;;;;5452543;26;20227;-41
2024/04/12 14:13:22;;;;;;;1.98;0.90;;;;;;;;;;5433862;26;20274;-41
2024/04/12 14:15:48;;;;;;;2.95;0.82;;;;;;;;;;5450472;26;20228;-41
2024/04/12 14:18:14;;;;;;;2.63;0.90;;;;;;;;;;5442755;26;20297;-41
2024/04/12 14:20:41;;;;;;;0.88;0.77;;;;;;;;;;5439686;26;20254;-41
2024/04/12 14:23:07;;;;;;;2.33;1.08;;;;;;;;;;5454254;26;20444;-41
2024/04/12 14:25:34;;;;;;;4.45;1.25;;;;;;;;;;5440590;26;20614;-42
2024/04/12 14:28:00;;;;;;;5.97;1.40;;;;;;;;;;5446778;26;20278;-41
2024/04/12 14:30:26;;;;;;;1.85;0.80;;;;;;;;;;5432598;26;20518;-41
2024/04/12 14:32:52;;;;;;;1.70;1.02;;;;;;;;;;5433783;26;20255;-41
2024/04/12 14:35:19;;;;;;;1.52;1.00;;;;;;;;;;5449786;26;20228;-42
2024/04/12 14:37:45;;;;;;;5.85;0.95;;;;;;;;;;5427314;26;20225;-42
2024/04/12 14:40:18;;;;;;;1.20;0.93;;;;;;;;;;5445174;26;20219;-41
2024/04/12 14:42:47;;;;;;;2.00;0.60;;;;;;;;;;5456758;26;20477;-41
2024/04/12 14:45:13;;;;;;;1.00;0.80;;;;;;;;;;5434593;26;20614;-41
2024/04/12 14:47:40;;;;;;;1.75;0.75;;;;;;;;;;5442544;26;20239;-41
2024/04/12 14:50:10;;;;;;;1.45;0.85;;;;;;;;;;5448937;26;20290;-41
2024/04/12 14:52:38;;;;;;;3.63;0.90;;;;;;;;;;5433713;26;20240;-41
2024/04/12 14:55:05;;;;;;;0.65;0.65;;;;;;;;;;5445158;26;20239;-41
2024/04/12 14:57:31;;;;;;;0.95;0.70;;;;;;;;;;5455286;26;20607;-41
2024/04/12 14:59:57;;;;;;;1.98;0.85;;;;;;;;;;5425532;26;20236;-41
2024/04/12 15:48:43;;;;;;;6.05;1.40;;;;;;;;;;5452370;26;20312;-42
2024/04/12 15:51:14;;;;;;;6.60;1.20;;;;;;;;;;5452026;26;20513;-41
2024/04/12 15:53:45;;;;;;;2.08;1.10;;;;;;;;;;5429854;26;20330;-40
2024/04/12 16:12:23;;;;;;;1.10;1.00;;;;;;;;;;5439412;26;20325;-40
2024/04/12 16:14:48;;;;;;;2.40;1.30;;;;;;;;;;5446649;26;20232;-41
2024/04/12 16:17:15;;;;;;;2.63;1.30;;;;;;;;;;5433635;26;20247;-40
2024/04/12 16:19:41;;;;;;;3.97;1.10;;;;;;;;;;5444801;26;20244;-41
2024/04/12 16:22:07;;;;;;;5.32;1.05;;;;;;;;;;5436719;26;20232;-41
2024/04/12 16:24:33;;;;;;;3.42;1.27;;;;;;;;;;5440922;26;20261;-41
2024/04/12 16:26:59;;;;;;;2.13;1.10;;;;;;;;;;5444943;26;20451;-41
2024/04/12 16:29:25;;;;;;;2.00;1.13;;;;;;;;;;5429515;26;20275;-41
2024/04/12 16:31:54;;;;;;;4.80;1.20;;;;;;;;;;5436403;26;20300;-41
2024/04/12 16:34:20;;;;;;;1.75;1.05;;;;;;;;;;5454724;26;20223;-41
2024/04/12 16:36:49;;;;;;;1.58;0.93;;;;;;;;;;5452159;26;20298;-41
2024/04/12 16:39:15;;;;;;;5.18;1.77;;;;;;;;;;5454287;26;20674;-41
2024/04/12 16:41:41;;;;;;;3.35;1.80;;;;;;;;;;5450138;26;20227;-41
2024/04/12 16:44:07;;;;;;;3.53;1.80;;;;;;;;;;5437822;26;20269;-41
2024/04/12 16:46:33;;;;;;;3.15;1.52;;;;;;;;;;5453391;26;20236;-41
2024/04/12 16:49:00;;;;;;;6.47;1.60;;;;;;;;;;5436800;26;20274;-41
2024/04/12 16:51:26;;;;;;;3.47;1.42;;;;;;;;;;5436642;26;20274;-41
2024/04/12 16:53:54;;;;;;;2.72;1.40;;;;;;;;;;5425482;26;20275;-41
2024/04/12 16:56:24;;;;;;;4.65;1.70;;;;;;;;;;5453214;26;20235;-41
2024/04/12 16:58:49;;;;;;;4.88;1.55;;;;;;;;;;5441243;26;20239;-41
2024/04/12 17:01:15;;;;;;;3.47;1.55;;;;;;;;;;5448906;26;20328;-41
2024/04/12 17:03:41;;;;;;;2.72;1.30;;;;;;;;;;5437925;26;20277;-41
2024/04/12 17:06:07;;;;;;;2.90;1.20;;;;;;;;;;5437117;26;20274;-41
2024/04/12 17:08:33;;;;;;;3.17;1.30;;;;;;;;;;5429443;26;20306;-41
2024/04/12 17:11:01;;;;;;;2.17;1.23;;;;;;;;;;5429047;26;20233;-41
2024/04/12 17:13:26;;;;;;;2.35;1.27;;;;;;;;;;5430354;26;20235;-41
2024/04/12 17:15:52;;;;;;;4.40;1.45;;;;;;;;;;5434370;26;20298;-41
2024/04/12 17:18:20;;;;;;;2.45;1.33;;;;;;;;;;5454908;26;20254;-41
2024/04/12 17:20:53;;;;;;;1.95;1.27;;;;;;;;;;5432863;26;20394;-41